Time;durP1;ratioP1;P1;durP2;ratioP2;P2;SDS_P1;SDS_P2;PMS_P1;PMS_P2;Temp;Humidity;BMP_temperature;BMP_pressure;BME280_temperature;BME280_humidity;BME280_pressure;Samples;Min_cycle;Max_cycle;Signal;HPM_P1;HPM_P2
2023/10/09 00:00:51;;;;;;;2.75;2.42;;;10.70;99.90;;;;;;5037670;28;20036;-67
2023/10/09 00:03:23;;;;;;;2.83;2.17;;;10.70;99.90;;;;;;5037737;28;20035;-67
2023/10/09 00:05:52;;;;;;;3.40;2.00;;;10.60;99.90;;;;;;5055858;28;20036;-68
2023/10/09 00:08:30;;;;;;;3.30;2.28;;;10.70;99.90;;;;;;5057016;28;20029;-67
2023/10/09 00:11:19;;;;;;;3.85;2.30;;;10.70;99.90;;;;;;5057194;28;20139;-67
2023/10/09 00:13:48;;;;;;;;;;;10.70;99.90;;;;;;5056783;28;20029;-68
2023/10/09 00:16:16;;;;;;;3.25;1.80;;;10.80;99.90;;;;;;5054979;28;19916;-67
2023/10/09 00:18:46;;;;;;;3.85;2.08;;;10.70;99.90;;;;;;5055417;28;20159;-67
2023/10/09 00:21:22;;;;;;;3.92;2.10;;;10.80;99.90;;;;;;5055184;28;20119;-67
2023/10/09 00:23:59;;;;;;;2.75;2.10;;;10.70;99.90;;;;;;5055370;28;20059;-67
2023/10/09 00:26:25;;;;;;;2.65;2.13;;;10.70;99.90;;;;;;5055385;28;20078;-67
2023/10/09 00:28:51;;;;;;;5.18;2.40;;;10.80;99.90;;;;;;5055155;28;20036;-67
2023/10/09 00:31:29;;;;;;;2.22;1.92;;;10.80;99.90;;;;;;5054958;28;20029;-67
2023/10/09 00:34:01;;;;;;;4.72;2.22;;;10.80;99.90;;;;;;5055166;28;20056;-67
2023/10/09 00:36:29;;;;;;;2.95;2.15;;;10.70;99.90;;;;;;5055181;28;20057;-67
2023/10/09 00:38:57;;;;;;;4.73;2.23;;;10.70;99.90;;;;;;5036843;28;20056;-67
2023/10/09 00:41:24;;;;;;;2.55;2.30;;;10.70;99.90;;;;;;5055015;28;20029;-67
2023/10/09 00:43:51;;;;;;;3.90;2.47;;;10.70;99.90;;;;;;5054484;28;20048;-67
2023/10/09 00:48:47;;;;;;;3.28;2.17;;;10.70;99.90;;;;;;5054643;28;20033;-67
2023/10/09 00:51:18;;;;;;;2.58;2.38;;;10.70;99.90;;;;;;5036708;28;20456;-67
2023/10/09 00:53:51;;;;;;;4.20;2.00;;;10.70;99.90;;;;;;5036761;28;20495;-67
2023/10/09 00:57:07;;;;;;;5.80;2.78;;;10.70;99.90;;;;;;5037441;28;20039;-67
2023/10/09 00:59:09;;;;;;;4.80;2.20;;;10.70;99.90;;;;;;5051222;28;20465;-67
2023/10/09 01:01:39;;;;;;;5.90;2.10;;;10.60;99.90;;;;;;5054190;28;20053;-67
2023/10/09 01:04:17;;;;;;;4.00;2.15;;;10.60;99.90;;;;;;5054354;28;20350;-67
2023/10/09 01:07:06;;;;;;;3.22;2.13;;;10.60;99.90;;;;;;5054122;28;20032;-67
2023/10/09 01:09:37;;;;;;;4.15;2.25;;;10.60;99.90;;;;;;5054353;28;20028;-67
2023/10/09 01:12:03;;;;;;;4.40;2.40;;;10.60;99.90;;;;;;5054409;28;20051;-67
2023/10/09 01:14:36;;;;;;;3.60;2.53;;;10.70;99.90;;;;;;5053981;28;20485;-67
2023/10/09 01:17:08;;;;;;;4.97;2.05;;;10.60;99.90;;;;;;5054207;28;20028;-67
2023/10/09 01:19:34;;;;;;;3.17;2.30;;;10.70;99.90;;;;;;5054139;28;20036;-67
2023/10/09 01:22:21;;;;;;;3.15;2.25;;;10.70;99.90;;;;;;5054080;28;20083;-67
2023/10/09 01:24:49;;;;;;;4.38;2.45;;;10.70;99.90;;;;;;5054199;28;20032;-67
2023/10/09 01:27:15;;;;;;;6.68;2.38;;;10.80;99.90;;;;;;5035420;28;20024;-67
2023/10/09 01:29:42;;;;;;;5.72;2.25;;;10.80;99.90;;;;;;5036089;28;20036;-67
2023/10/09 01:32:16;;;;;;;2.63;1.92;;;10.80;99.90;;;;;;5053971;28;20045;-67
2023/10/09 01:34:48;;;;;;;2.75;1.98;;;10.90;99.90;;;;;;5054253;28;20040;-67
2023/10/09 01:37:19;;;;;;;3.20;2.13;;;10.90;99.90;;;;;;5053855;28;20064;-67
2023/10/09 01:39:48;;;;;;;4.93;1.95;;;11.00;99.90;;;;;;5054119;28;20044;-67
2023/10/09 01:42:23;;;;;;;4.00;2.22;;;10.90;99.90;;;;;;5053769;28;20100;-67
2023/10/09 01:44:49;;;;;;;6.85;2.65;;;10.90;99.90;;;;;;5036119;28;20371;-68
2023/10/09 01:47:18;;;;;;;3.72;2.25;;;10.90;99.90;;;;;;5053817;28;20025;-67
2023/10/09 01:49:43;;;;;;;4.70;2.17;;;10.90;99.90;;;;;;5053914;28;20018;-67
2023/10/09 01:52:15;;;;;;;3.40;2.20;;;10.90;99.90;;;;;;5053675;28;20033;-67
2023/10/09 01:54:51;;;;;;;4.75;2.20;;;10.90;99.90;;;;;;5053734;28;20342;-67
2023/10/09 01:57:25;;;;;;;5.00;2.53;;;10.90;99.90;;;;;;5053886;28;20028;-67
2023/10/09 01:59:53;;;;;;;3.17;2.28;;;10.90;99.90;;;;;;5036018;28;20025;-67
2023/10/09 02:02:26;;;;;;;4.22;1.92;;;10.90;99.90;;;;;;5053476;28;20021;-67
2023/10/09 02:04:52;;;;;;;3.00;2.20;;;10.90;99.90;;;;;;5053787;28;20116;-68
2023/10/09 02:07:29;;;;;;;5.05;2.42;;;10.90;99.90;;;;;;5053249;28;20362;-67
2023/10/09 02:09:57;;;;;;;4.75;1.90;;;10.90;99.90;;;;;;5053574;28;20025;-67
2023/10/09 02:12:23;;;;;;;4.32;2.03;;;10.90;99.90;;;;;;5053685;28;20036;-67
2023/10/09 02:14:53;;;;;;;2.72;2.25;;;11.00;99.90;;;;;;5053475;28;20112;-67
2023/10/09 02:17:20;;;;;;;2.40;2.20;;;11.00;99.90;;;;;;5035551;28;20025;-67
2023/10/09 02:19:49;;;;;;;5.18;2.35;;;11.00;99.90;;;;;;5053571;28;20461;-67
2023/10/09 02:22:15;;;;;;;;;;;11.00;99.90;;;;;;5053858;28;20017;-67
2023/10/09 02:27:39;;;;;;;3.47;1.80;;;11.00;99.90;;;;;;5053423;28;20032;-67
2023/10/09 02:30:08;;;;;;;4.20;2.40;;;11.00;99.90;;;;;;5053041;28;20491;-67
2023/10/09 02:32:33;;;;;;;2.90;1.80;;;11.00;99.90;;;;;;5053662;28;20045;-67
2023/10/09 02:35:09;;;;;;;2.55;2.15;;;11.00;99.90;;;;;;5053295;28;20037;-67
2023/10/09 02:37:37;;;;;;;2.45;2.00;;;11.10;99.90;;;;;;5054388;28;20029;-67
2023/10/09 02:40:08;;;;;;;5.43;1.88;;;11.00;99.90;;;;;;5039223;28;20025;-67
2023/10/09 02:42:34;;;;;;;3.63;2.45;;;11.00;99.90;;;;;;5039132;28;20029;-67
2023/10/09 02:45:00;;;;;;;3.95;2.70;;;11.00;99.90;;;;;;5039152;28;20030;-67
2023/10/09 02:47:31;;;;;;;3.65;2.10;;;11.10;99.90;;;;;;5039037;28;20025;-68
2023/10/09 02:50:06;;;;;;;4.82;2.17;;;11.10;99.90;;;;;;5056920;28;20028;-67
2023/10/09 02:52:40;;;;;;;4.82;2.45;;;11.10;99.90;;;;;;5057056;28;20029;-67
2023/10/09 02:55:13;;;;;;;3.55;2.28;;;11.10;99.90;;;;;;5039187;28;20407;-67
2023/10/09 02:57:41;;;;;;;4.93;2.13;;;11.10;99.90;;;;;;5039115;28;20033;-67
2023/10/09 03:00:18;;;;;;;4.43;2.42;;;11.10;99.90;;;;;;5056664;28;20025;-68
2023/10/09 03:02:49;;;;;;;4.13;2.13;;;11.10;99.90;;;;;;5039268;28;20481;-67
2023/10/09 03:05:15;;;;;;;3.80;2.50;;;11.20;99.90;;;;;;5056727;28;20492;-67
2023/10/09 03:07:42;;;;;;;2.42;2.05;;;11.20;99.90;;;;;;5056721;28;20033;-67
2023/10/09 03:10:10;;;;;;;3.75;2.42;;;11.20;99.90;;;;;;5056492;28;20067;-67
2023/10/09 03:12:36;;;;;;;2.45;1.63;;;11.20;99.90;;;;;;5038554;28;20151;-67
2023/10/09 03:15:05;;;;;;;4.30;2.30;;;11.20;99.90;;;;;;5038739;28;20029;-68
2023/10/09 03:17:34;;;;;;;;;;;11.20;99.90;;;;;;5039121;28;20057;-68
2023/10/09 03:20:12;;;;;;;4.40;2.30;;;11.20;99.90;;;;;;5056435;28;20007;-68
2023/10/09 03:22:39;;;;;;;4.25;1.90;;;11.20;99.90;;;;;;5056602;28;20025;-67
2023/10/09 03:25:11;;;;;;;3.58;2.20;;;11.20;99.90;;;;;;5038749;28;20056;-68
2023/10/09 03:27:46;;;;;;;3.92;2.15;;;11.20;99.90;;;;;;5038756;28;20078;-68
2023/10/09 03:30:17;;;;;;;5.13;2.13;;;11.10;99.90;;;;;;5056289;28;20055;-68
2023/10/09 03:32:50;;;;;;;3.65;2.10;;;11.10;99.90;;;;;;5061794;28;20092;-68
2023/10/09 03:35:33;;;;;;;2.70;1.83;;;11.10;99.90;;;;;;5075891;28;20465;-68
2023/10/09 03:38:02;;;;;;;3.40;2.13;;;11.10;99.90;;;;;;5076358;28;20090;-68
2023/10/09 03:40:28;;;;;;;4.32;2.20;;;11.10;99.90;;;;;;5076619;28;20055;-68
2023/10/09 03:42:54;;;;;;;4.82;2.05;;;11.10;99.90;;;;;;5075003;28;20024;-68
2023/10/09 03:45:26;;;;;;;2.30;1.80;;;11.10;99.90;;;;;;5076314;28;20461;-67
2023/10/09 03:48:21;;;;;;;4.32;2.13;;;11.00;99.90;;;;;;5076149;28;20034;-67
2023/10/09 03:50:43;;;;;;;4.60;2.22;;;11.00;99.90;;;;;;5074846;28;20033;-67
2023/10/09 03:53:12;;;;;;;4.63;2.08;;;10.90;99.90;;;;;;5075898;28;20021;-68
2023/10/09 03:55:39;;;;;;;3.35;2.17;;;10.90;99.90;;;;;;5075984;28;20028;-67
2023/10/09 03:58:06;;;;;;;3.78;2.35;;;10.90;99.90;;;;;;5075244;28;20494;-68
2023/10/09 04:00:40;;;;;;;3.45;2.00;;;10.80;99.90;;;;;;5077182;28;20082;-68
2023/10/09 04:03:06;;;;;;;5.15;2.13;;;10.80;99.90;;;;;;5076211;28;20473;-68
2023/10/09 04:05:32;;;;;;;2.58;1.95;;;10.80;99.90;;;;;;5076395;28;20032;-68
2023/10/09 04:08:01;;;;;;;4.43;2.55;;;10.80;99.90;;;;;;5076350;28;20028;-67
2023/10/09 04:10:43;;;;;;;5.35;2.17;;;10.70;99.90;;;;;;5075995;28;20028;-68
2023/10/09 04:13:11;;;;;;;4.45;2.42;;;10.70;99.90;;;;;;5074752;28;20028;-68
2023/10/09 04:15:38;;;;;;;3.67;2.45;;;10.60;99.90;;;;;;5075651;28;20028;-67
2023/10/09 04:18:08;;;;;;;4.32;2.60;;;10.60;99.90;;;;;;5075391;28;20028;-67
2023/10/09 04:23:04;;;;;;;3.63;2.40;;;10.50;99.90;;;;;;5077438;28;20035;-68
2023/10/09 04:25:40;;;;;;;5.32;2.60;;;10.50;99.90;;;;;;5075583;28;20067;-67
2023/10/09 04:28:09;;;;;;;5.65;2.67;;;10.50;99.90;;;;;;5074294;28;20024;-67
2023/10/09 04:30:40;;;;;;;5.60;2.67;;;10.40;99.90;;;;;;5074736;28;20388;-67
2023/10/09 04:33:22;;;;;;;4.15;2.83;;;10.40;99.90;;;;;;5058555;28;20095;-68
2023/10/09 04:36:12;;;;;;;4.32;3.03;;;10.30;99.90;;;;;;5055275;28;20083;-68
2023/10/09 04:38:34;;;;;;;3.67;2.42;;;10.30;99.90;;;;;;5055746;28;20029;-66
2023/10/09 04:40:59;;;;;;;3.92;2.60;;;10.20;99.90;;;;;;5054800;28;20069;-66
2023/10/09 04:43:26;;;;;;;5.93;2.35;;;10.20;99.90;;;;;;5054947;28;20477;-67
2023/10/09 04:46:12;;;;;;;5.20;3.00;;;10.20;99.90;;;;;;5054769;28;20095;-67
2023/10/09 04:48:38;;;;;;;4.80;2.83;;;10.10;99.90;;;;;;5055822;28;20036;-67
2023/10/09 04:51:22;;;;;;;4.53;2.67;;;10.10;99.90;;;;;;5037551;28;20028;-67
2023/10/09 04:54:12;;;;;;;7.90;3.03;;;10.10;99.90;;;;;;5056087;28;20017;-68
2023/10/09 04:56:51;;;;;;;4.50;3.75;;;10.00;99.90;;;;;;5056545;28;20020;-68
2023/10/09 04:59:24;;;;;;;5.03;2.97;;;10.00;99.90;;;;;;5056204;28;20430;-68
2023/10/09 05:01:59;;;;;;;4.88;3.65;;;9.90;99.90;;;;;;5055478;28;20079;-70
2023/10/09 05:04:39;;;;;;;6.88;3.47;;;9.90;99.90;;;;;;5037153;28;20473;-67
2023/10/09 05:07:22;;;;;;;7.25;3.08;;;9.90;99.90;;;;;;5036725;28;20036;-67
2023/10/09 05:09:55;;;;;;;5.55;2.97;;;9.90;99.90;;;;;;5037767;28;20037;-67
2023/10/09 05:12:26;;;;;;;6.53;2.95;;;9.90;99.90;;;;;;5054561;28;20028;-66
2023/10/09 05:15:13;;;;;;;6.03;2.80;;;9.90;99.90;;;;;;5054541;28;20082;-67
2023/10/09 05:17:39;;;;;;;4.28;3.08;;;9.90;99.90;;;;;;5053873;28;20350;-67
2023/10/09 05:23:23;;;;;;;7.85;3.75;;;9.80;99.90;;;;;;5054187;28;20036;-67
2023/10/09 05:25:53;;;;;;;4.73;2.80;;;9.90;99.90;;;;;;5052319;28;20029;-67
2023/10/09 05:28:30;;;;;;;5.03;3.13;;;9.90;99.90;;;;;;5054637;28;20029;-67
2023/10/09 05:31:07;;;;;;;7.22;3.30;;;9.90;99.90;;;;;;5035831;28;20028;-67
2023/10/09 05:33:36;;;;;;;5.47;2.83;;;9.90;99.90;;;;;;5072774;28;20067;-67
2023/10/09 05:38:58;;;;;;;9.82;2.78;;;9.80;99.90;;;;;;5074019;28;20033;-67
2023/10/09 05:41:47;;;;;;;8.30;3.10;;;9.70;99.90;;;;;;5072852;28;20047;-67
2023/10/09 05:52:32;;;;;;;4.78;2.78;;;9.50;99.90;;;;;;5074034;28;20040;-67
2023/10/09 06:14:12;;;;;;;5.70;3.42;;;10.00;99.90;;;;;;5076844;28;20129;-67
2023/10/09 06:16:42;;;;;;;5.70;3.15;;;10.10;99.90;;;;;;5076997;28;20043;-67
2023/10/09 06:19:11;;;;;;;5.75;2.95;;;10.20;99.90;;;;;;5076172;28;20032;-67
2023/10/09 06:24:54;;;;;;;7.95;3.30;;;10.60;99.90;;;;;;5077414;28;20021;-67
2023/10/09 06:27:12;;;;;;;5.72;2.97;;;10.80;99.90;;;;;;5076568;28;20047;-67
2023/10/09 06:34:57;;;;;;;5.28;3.13;;;11.30;99.90;;;;;;5057336;28;20025;-68
2023/10/09 06:39:50;;;;;;;6.28;3.10;;;11.70;99.90;;;;;;5057014;28;20064;-68
2023/10/09 06:42:40;;;;;;;6.68;2.72;;;11.80;99.90;;;;;;5057079;28;20453;-67
2023/10/09 06:45:16;;;;;;;5.30;3.13;;;11.90;99.90;;;;;;5039819;28;20108;-67
2023/10/09 06:47:55;;;;;;;6.00;4.13;;;12.20;99.90;;;;;;5057187;28;20040;-68
2023/10/09 06:55:48;;;;;;;9.20;2.65;;;12.80;99.90;;;;;;5060909;28;20029;-68
2023/10/09 06:58:25;;;;;;;3.78;2.22;;;12.90;99.90;;;;;;5060462;28;20054;-68
2023/10/09 07:01:19;;;;;;;4.47;2.63;;;12.90;99.90;;;;;;5040023;28;20033;-68
2023/10/09 07:03:52;;;;;;;4.22;2.30;;;13.00;99.90;;;;;;5056225;28;20457;-68
2023/10/09 07:06:47;;;;;;;7.30;3.10;;;13.00;99.90;;;;;;5056705;28;20029;-68
2023/10/09 07:17:01;;;;;;;5.00;2.28;;;13.80;99.90;;;;;;5056460;28;20400;-68
2023/10/09 07:22:15;;;;;;;7.95;3.17;;;14.20;99.90;;;;;;5056228;28;20082;-68
2023/10/09 07:24:49;;;;;;;4.18;2.13;;;14.40;99.90;;;;;;5037866;28;20111;-68
2023/10/09 07:27:42;;;;;;;4.22;2.00;;;14.50;99.90;;;;;;5056316;28;20163;-68
2023/10/09 07:30:35;;;;;;;2.78;2.20;;;14.60;99.90;;;;;;5055834;28;20033;-68
2023/10/09 07:32:54;;;;;;;6.30;2.78;;;15.10;99.90;;;;;;5056147;28;20052;-68
2023/10/09 07:38:08;;;;;;;5.55;2.55;;;16.40;99.90;;;;;;5055680;28;20040;-68
2023/10/09 07:48:56;;;;;;;5.57;2.05;;;18.00;98.00;;;;;;5024123;28;20052;-67
2023/10/09 07:51:23;;;;;;;3.20;1.80;;;18.10;97.80;;;;;;5055427;28;20537;-68
2023/10/09 07:54:08;;;;;;;2.95;1.70;;;18.40;97.10;;;;;;5055996;28;20107;-67
2023/10/09 07:56:41;;;;;;;5.88;2.30;;;18.70;96.40;;;;;;5055985;28;20031;-68
2023/10/09 07:59:11;;;;;;;2.30;1.50;;;19.00;95.90;;;;;;5055690;28;20032;-66
2023/10/09 08:01:54;;;;;;;4.72;1.83;;;18.90;95.40;;;;;;5055968;28;20504;-68
2023/10/09 08:04:47;;;;;;;3.78;1.80;;;18.50;95.20;;;;;;5055901;28;20060;-67
2023/10/09 08:07:34;;;;;;;4.82;1.65;;;18.10;96.00;;;;;;5055533;28;20071;-66
2023/10/09 08:17:54;;;;;;;8.73;2.17;;;19.50;93.60;;;;;;5055835;28;20025;-66
2023/10/09 08:20:26;;;;;;;7.20;2.25;;;20.00;92.70;;;;;;5061009;28;20029;-66
2023/10/09 08:22:55;;;;;;;4.05;2.03;;;20.50;91.90;;;;;;5061319;28;20045;-67
2023/10/09 08:25:35;;;;;;;;;;;20.90;91.00;;;;;;5059582;28;20108;-66
2023/10/09 08:35:55;;;;;;;7.90;1.83;;;21.40;86.20;;;;;;5054865;28;20056;-65
2023/10/09 08:38:24;;;;;;;6.43;1.95;;;21.20;87.70;;;;;;5037198;28;20037;-65
2023/10/09 08:40:54;;;;;;;6.18;1.77;;;21.50;88.30;;;;;;5054705;28;20123;-65
2023/10/09 08:43:22;;;;;;;3.10;2.00;;;21.50;86.90;;;;;;5037115;28;20049;-65
2023/10/09 08:46:00;;;;;;;2.80;1.70;;;22.20;86.40;;;;;;5036579;28;20028;-67
2023/10/09 08:48:27;;;;;;;;;;;22.70;85.10;;;;;;5037488;28;20028;-68
2023/10/09 08:50:55;;;;;;;3.63;2.40;;;23.20;83.70;;;;;;5054451;28;20372;-68
2023/10/09 08:53:23;;;;;;;5.55;2.63;;;23.50;81.80;;;;;;5036822;28;20029;-68
2023/10/09 08:55:51;;;;;;;6.88;1.90;;;23.50;81.40;;;;;;5056175;28;20087;-68
2023/10/09 08:58:36;;;;;;;10.02;1.98;;;23.20;82.20;;;;;;5055534;28;20099;-68
2023/10/09 09:01:02;;;;;;;9.63;2.35;;;22.90;82.70;;;;;;5036389;28;20028;-67
2023/10/09 09:03:43;;;;;;;5.53;2.28;;;22.70;84.40;;;;;;5054740;28;20025;-68
2023/10/09 09:06:10;;;;;;;5.93;2.42;;;23.00;85.40;;;;;;5038655;28;20025;-68
2023/10/09 09:08:36;;;;;;;14.43;3.13;;;23.30;83.70;;;;;;5056223;28;20115;-68
2023/10/09 09:11:12;;;;;;;10.43;2.60;;;23.20;83.90;;;;;;5055551;28;20115;-68
2023/10/09 09:13:42;;;;;;;6.82;2.35;;;22.30;85.80;;;;;;5056043;28;20029;-67
2023/10/09 09:16:20;;;;;;;11.40;3.03;;;21.80;87.90;;;;;;5038773;28;20416;-67
2023/10/09 09:21:39;;;;;;;11.98;3.13;;;21.10;90.30;;;;;;5054311;28;20110;-66
2023/10/09 09:26:59;;;;;;;11.25;2.90;;;20.20;91.70;;;;;;5054241;28;20133;-66
2023/10/09 09:29:37;;;;;;;9.18;3.17;;;20.00;92.20;;;;;;5054494;28;20074;-67
2023/10/09 09:32:23;;;;;;;14.60;2.80;;;20.10;92.80;;;;;;5053312;28;20353;-66
2023/10/09 09:35:27;;;;;;;13.25;3.35;;;20.20;92.80;;;;;;5054041;28;20393;-67
2023/10/09 09:37:53;;;;;;;11.75;3.42;;;20.30;92.70;;;;;;5049742;28;20382;-67
2023/10/09 09:40:31;;;;;;;11.73;3.10;;;20.30;92.80;;;;;;5054012;28;20068;-67
2023/10/09 09:43:05;;;;;;;16.50;3.45;;;20.50;92.70;;;;;;5035711;28;20028;-67
2023/10/09 09:45:48;;;;;;;11.02;2.65;;;20.60;92.50;;;;;;5053935;28;20028;-67
2023/10/09 09:48:16;;;;;;;15.20;3.67;;;20.90;92.40;;;;;;5053606;28;20032;-67
2023/10/09 09:50:44;;;;;;;13.60;3.17;;;21.00;91.70;;;;;;5053959;28;20032;-67
2023/10/09 09:53:17;;;;;;;12.50;2.85;;;21.10;91.90;;;;;;5036043;28;20064;-67
2023/10/09 09:55:59;;;;;;;9.73;2.55;;;21.40;91.20;;;;;;5053846;28;20029;-67
2023/10/09 09:58:44;;;;;;;11.52;2.60;;;21.90;90.80;;;;;;5053705;28;20041;-67
2023/10/09 10:01:24;;;;;;;11.82;2.90;;;22.80;88.60;;;;;;5053895;28;20021;-66
2023/10/09 10:04:12;;;;;;;10.02;2.88;;;23.70;86.20;;;;;;5054082;28;20056;-67
2023/10/09 10:06:40;;;;;;;13.07;2.83;;;24.10;83.70;;;;;;5053779;28;20025;-67
2023/10/09 10:09:07;;;;;;;12.77;3.27;;;23.90;84.00;;;;;;5053541;28;20062;-65
2023/10/09 10:11:46;;;;;;;12.05;2.72;;;23.60;83.60;;;;;;5036249;28;20147;-66
2023/10/09 10:14:31;;;;;;;11.50;2.72;;;23.00;84.20;;;;;;5053454;28;20021;-68
2023/10/09 10:17:16;;;;;;;14.23;3.00;;;22.70;85.30;;;;;;5053656;28;20021;-67
2023/10/09 10:19:59;;;;;;;9.68;2.95;;;22.00;86.90;;;;;;5053829;28;20033;-67
2023/10/09 10:22:29;;;;;;;14.10;3.47;;;21.60;88.80;;;;;;5053118;28;20435;-67
2023/10/09 10:24:57;;;;;;;8.38;2.90;;;21.50;89.30;;;;;;5053484;28;20376;-67
2023/10/09 10:27:44;;;;;;;18.08;3.20;;;21.20;89.80;;;;;;5053319;28;20033;-67
2023/10/09 10:30:13;;;;;;;8.45;3.25;;;21.20;90.20;;;;;;5053355;28;20415;-68
2023/10/09 10:32:51;;;;;;;;;;;21.10;90.20;;;;;;5058442;28;20048;-67
2023/10/09 10:35:21;;;;;;;14.00;2.97;;;20.90;90.40;;;;;;5073268;28;19951;-67
2023/10/09 10:38:03;;;;;;;9.90;3.08;;;20.70;90.70;;;;;;5073098;28;20031;-67
2023/10/09 10:40:45;;;;;;;15.38;3.35;;;21.00;90.90;;;;;;5072399;28;20024;-67
2023/10/09 10:51:39;;;;;;;9.05;2.50;;;21.30;90.10;;;;;;5073313;28;20634;-67
2023/10/09 10:56:51;;;;;;;15.85;2.85;;;21.00;90.80;;;;;;5072703;28;20036;-67
2023/10/09 10:59:23;;;;;;;10.70;2.70;;;20.70;91.10;;;;;;5074868;28;20025;-67
2023/10/09 11:01:53;;;;;;;7.60;2.67;;;20.60;91.40;;;;;;5075967;28;20031;-67
2023/10/09 11:15:44;;;;;;;9.75;2.80;;;18.40;97.40;;;;;;5045020;28;20465;-67
2023/10/09 11:18:20;;;;;;;12.32;3.88;;;18.00;99.90;;;;;;5075837;28;20110;-66
2023/10/09 11:28:56;;;;;;;13.15;4.18;;;17.40;99.90;;;;;;5075983;28;20030;-73
2023/10/09 11:31:22;;;;;;;10.40;3.40;;;17.50;99.90;;;;;;5072404;28;20028;-73
2023/10/09 11:33:51;;;;;;;13.70;3.50;;;17.30;99.90;;;;;;5038742;28;20048;-73
2023/10/09 11:36:17;;;;;;;14.48;3.78;;;17.20;99.90;;;;;;5038137;28;20028;-73
2023/10/09 11:38:45;;;;;;;15.88;3.63;;;17.20;99.90;;;;;;5055998;28;20033;-73
2023/10/09 11:41:19;;;;;;;11.00;3.67;;;17.20;99.90;;;;;;5038000;28;20128;-73
2023/10/09 11:43:52;;;;;;;7.55;3.50;;;17.10;99.90;;;;;;5038187;28;20048;-73
2023/10/09 11:46:40;;;;;;;17.23;4.95;;;17.20;99.90;;;;;;5038057;28;20393;-73
2023/10/09 11:54:56;;;;;;;13.70;4.40;;;17.40;99.90;;;;;;4994003;28;20026;-73
2023/10/09 11:57:30;;;;;;;14.68;4.30;;;17.20;99.90;;;;;;4994100;28;20481;-73
2023/10/09 11:59:59;;;;;;;12.77;4.38;;;17.20;99.90;;;;;;4977829;28;20046;-66
2023/10/09 12:02:26;;;;;;;11.73;4.00;;;17.10;99.90;;;;;;4993943;28;20363;-68
2023/10/09 12:04:51;;;;;;;12.95;4.05;;;17.20;99.90;;;;;;4977528;28;20034;-68
2023/10/09 12:07:20;;;;;;;16.50;4.45;;;17.10;99.90;;;;;;4993783;28;20046;-69
2023/10/09 12:09:48;;;;;;;15.70;4.18;;;17.10;99.90;;;;;;4993671;28;20537;-68
2023/10/09 12:12:13;;;;;;;9.65;4.05;;;17.10;99.90;;;;;;4993458;28;20042;-67
2023/10/09 12:14:39;;;;;;;10.25;4.05;;;17.20;99.90;;;;;;4977385;28;20476;-67
2023/10/09 12:17:06;;;;;;;14.25;4.80;;;17.30;99.90;;;;;;4993615;28;20483;-67
2023/10/09 12:19:34;;;;;;;11.68;3.55;;;17.40;99.90;;;;;;4993618;28;20046;-67
2023/10/09 12:22:00;;;;;;;14.55;4.68;;;17.60;99.90;;;;;;4993534;28;20524;-67
2023/10/09 12:24:29;;;;;;;16.25;4.82;;;17.80;99.90;;;;;;4995239;28;20030;-66
2023/10/09 12:26:54;;;;;;;10.47;4.20;;;18.00;99.90;;;;;;5037953;28;20025;-69
2023/10/09 12:29:20;;;;;;;16.02;4.80;;;18.10;99.90;;;;;;5055319;28;20362;-69
2023/10/09 12:31:46;;;;;;;10.70;4.15;;;17.90;99.90;;;;;;5045098;28;20048;-68
2023/10/09 12:34:16;;;;;;;15.77;4.65;;;17.50;99.90;;;;;;5074223;28;20020;-69
2023/10/09 12:36:44;;;;;;;10.77;3.97;;;17.00;99.90;;;;;;5074677;28;20024;-69
2023/10/09 12:39:17;;;;;;;14.80;5.00;;;16.90;99.90;;;;;;5076745;28;20044;-69
2023/10/09 12:41:46;;;;;;;12.18;4.70;;;16.70;99.90;;;;;;5077109;28;20469;-69
2023/10/09 12:44:15;;;;;;;;;;;16.60;99.90;;;;;;5075517;28;20067;-69
2023/10/09 12:46:51;;;;;;;11.77;4.03;;;16.50;99.90;;;;;;5076638;28;20003;-69
2023/10/09 12:49:24;;;;;;;15.13;4.50;;;16.60;99.90;;;;;;5075338;28;20032;-68
2023/10/09 12:51:52;;;;;;;13.40;5.07;;;16.40;99.90;;;;;;5073483;28;20124;-69
2023/10/09 12:54:20;;;;;;;9.57;4.38;;;16.10;99.90;;;;;;5074069;28;20356;-68
2023/10/09 12:56:49;;;;;;;13.05;5.53;;;15.90;99.90;;;;;;5074261;28;20029;-73
2023/10/09 12:59:15;;;;;;;16.30;6.28;;;15.70;99.90;;;;;;5074276;28;20028;-67
2023/10/09 13:01:43;;;;;;;15.20;5.80;;;15.60;99.90;;;;;;5073212;28;20036;-67
2023/10/09 13:04:16;;;;;;;13.27;5.40;;;15.50;99.90;;;;;;5073076;28;20479;-67
2023/10/09 13:06:45;;;;;;;12.15;5.38;;;15.50;99.90;;;;;;5074407;28;20063;-67
2023/10/09 13:09:11;;;;;;;;;;;15.40;99.90;;;;;;5074738;28;20111;-67
2023/10/09 13:11:43;;;;;;;15.48;6.15;;;15.40;99.90;;;;;;5072780;28;19939;-68
2023/10/09 13:14:16;;;;;;;16.27;6.32;;;15.40;99.90;;;;;;5074424;28;20032;-68
2023/10/09 13:16:45;;;;;;;20.10;6.88;;;15.40;99.90;;;;;;5074246;28;20021;-67
2023/10/09 13:19:11;;;;;;;;;;;15.40;99.90;;;;;;5074635;28;20036;-68
2023/10/09 13:21:40;;;;;;;14.05;6.38;;;15.40;99.90;;;;;;5072396;28;19905;-67
2023/10/09 13:24:12;;;;;;;20.35;7.00;;;15.30;99.90;;;;;;5073554;28;20029;-67
2023/10/09 13:26:40;;;;;;;12.70;6.30;;;15.20;99.90;;;;;;5072854;28;20028;-67
2023/10/09 13:29:09;;;;;;;13.07;6.63;;;15.10;99.90;;;;;;5074008;28;20078;-66
2023/10/09 13:31:37;;;;;;;17.10;6.78;;;15.00;99.90;;;;;;5069790;28;20056;-67
2023/10/09 13:34:09;;;;;;;15.60;7.50;;;15.00;99.90;;;;;;5053736;28;20025;-66
2023/10/09 13:36:36;;;;;;;20.98;8.27;;;15.00;99.90;;;;;;5053812;28;20086;-66
2023/10/09 13:41:59;;;;;;;16.50;8.45;;;14.90;99.90;;;;;;5053706;28;20039;-66
2023/10/09 13:44:28;;;;;;;19.35;7.85;;;14.90;99.90;;;;;;5036874;28;20350;-67
2023/10/09 13:46:54;;;;;;;;;;;14.80;99.90;;;;;;5036401;28;20032;-66
2023/10/09 13:49:22;;;;;;;26.75;8.07;;;14.80;99.90;;;;;;5053736;28;19904;-66
2023/10/09 13:51:49;;;;;;;18.65;8.40;;;14.70;99.90;;;;;;5054114;28;20457;-66
2023/10/09 13:54:39;;;;;;;26.25;8.45;;;14.70;99.90;;;;;;5053678;28;20067;-66
2023/10/09 13:57:05;;;;;;;;;;;14.60;99.90;;;;;;5036354;28;20457;-65
2023/10/09 13:59:31;;;;;;;27.45;8.15;;;14.70;99.90;;;;;;5054135;28;19963;-70
2023/10/09 14:01:59;;;;;;;25.33;8.15;;;14.70;99.90;;;;;;5053991;28;20045;-65
2023/10/09 14:04:26;;;;;;;24.05;8.18;;;14.70;99.90;;;;;;5053787;28;20028;-65
2023/10/09 14:06:58;;;;;;;23.30;8.65;;;14.70;99.90;;;;;;5053995;28;20017;-66
2023/10/09 14:09:28;;;;;;;22.50;8.18;;;14.70;99.90;;;;;;5054068;28;20036;-66
2023/10/09 14:12:07;;;;;;;21.25;8.82;;;14.70;99.90;;;;;;5035651;28;20354;-65
2023/10/09 14:14:46;;;;;;;;;;;14.70;99.90;;;;;;5054066;28;20056;-66
2023/10/09 14:17:19;;;;;;;19.20;7.57;;;14.70;99.90;;;;;;5035316;28;19905;-65
2023/10/09 14:19:47;;;;;;;19.58;8.38;;;14.80;99.90;;;;;;5053510;28;20041;-65
2023/10/09 14:22:15;;;;;;;16.70;7.85;;;;;;;;;;5053446;28;20416;-65
2023/10/09 14:24:45;;;;;;;20.75;8.73;;;14.70;99.90;;;;;;5053126;28;20024;-65
2023/10/09 14:27:17;;;;;;;18.90;8.30;;;14.70;99.90;;;;;;5053639;28;20025;-65
2023/10/09 14:29:47;;;;;;;24.20;8.82;;;14.70;99.90;;;;;;5035665;28;20083;-65
2023/10/09 14:32:13;;;;;;;18.58;7.70;;;14.60;99.90;;;;;;5053454;28;20053;-66
2023/10/09 14:34:46;;;;;;;19.55;8.50;;;14.60;99.90;;;;;;5037886;28;20082;-65
2023/10/09 14:37:12;;;;;;;15.57;7.68;;;14.60;99.90;;;;;;5057414;28;20021;-66
2023/10/09 14:39:41;;;;;;;18.90;7.93;;;14.60;99.90;;;;;;5056844;28;20469;-66
2023/10/09 14:42:10;;;;;;;17.25;7.15;;;14.50;99.90;;;;;;5057143;28;20021;-66
2023/10/09 14:44:40;;;;;;;21.80;7.43;;;14.50;99.90;;;;;;5057129;28;20120;-66
2023/10/09 14:47:06;;;;;;;23.52;7.97;;;14.50;99.90;;;;;;5056738;28;20493;-65
2023/10/09 14:49:37;;;;;;;28.63;8.18;;;14.50;99.90;;;;;;5057457;28;20376;-65
2023/10/09 14:52:08;;;;;;;21.27;7.82;;;14.50;99.90;;;;;;5057033;28;20044;-66
2023/10/09 14:54:35;;;;;;;23.02;8.52;;;14.60;99.90;;;;;;5057039;28;20032;-66
2023/10/09 14:57:00;;;;;;;23.40;8.18;;;14.50;99.90;;;;;;5039247;28;20556;-68
2023/10/09 14:59:26;;;;;;;17.48;7.57;;;14.60;99.90;;;;;;5056761;28;20104;-68
2023/10/09 15:01:53;;;;;;;21.08;7.82;;;14.60;99.90;;;;;;5038857;28;20021;-68
2023/10/09 15:04:19;;;;;;;19.25;7.75;;;14.60;99.90;;;;;;5038912;28;20021;-67
2023/10/09 15:06:49;;;;;;;27.48;8.90;;;14.60;99.90;;;;;;5057209;28;20053;-66
2023/10/09 15:09:28;;;;;;;25.67;8.88;;;14.60;99.90;;;;;;5056491;28;20025;-66
2023/10/09 15:11:54;;;;;;;30.27;8.48;;;14.60;99.90;;;;;;5056640;28;20025;-66
2023/10/09 15:14:20;;;;;;;23.45;8.45;;;14.60;99.90;;;;;;5055994;28;20418;-66
2023/10/09 15:16:47;;;;;;;21.88;8.63;;;14.60;99.90;;;;;;5056368;28;20103;-66
2023/10/09 15:19:13;;;;;;;27.38;9.30;;;14.60;99.90;;;;;;5056259;28;20382;-65
2023/10/09 15:21:46;;;;;;;21.70;9.00;;;14.60;99.90;;;;;;5056201;28;20025;-65
2023/10/09 15:24:16;;;;;;;29.02;11.38;;;14.60;99.90;;;;;;5038477;28;20100;-65
2023/10/09 15:26:57;;;;;;;28.38;9.20;;;14.70;99.90;;;;;;5038586;28;20025;-65
2023/10/09 15:29:28;;;;;;;20.17;8.95;;;14.70;99.90;;;;;;5038082;28;20060;-65
2023/10/09 15:32:14;;;;;;;20.08;8.88;;;14.70;99.90;;;;;;5055956;28;20487;-65